Time;durP1;ratioP1;P1;durP2;ratioP2;P2;SDS_P1;SDS_P2;PMS_P1;PMS_P2;Temp;Humidity;BMP_temperature;BMP_pressure;BME280_temperature;BME280_humidity;BME280_pressure;Samples;Min_cycle;Max_cycle;Signal;HPM_P1;HPM_P2
2023/11/06 08:28:03;;;;;;;2.85;2.10;;;;;;;;;;6232283;22;20057;-89
2023/11/06 09:11:47;;;;;;;3.55;2.10;;;;;;;;;;6246393;23;20028;-86
2023/11/06 09:14:14;;;;;;;2.53;2.33;;;;;;;;;;6248854;23;20065;-90
2023/11/06 09:16:39;;;;;;;10.23;2.53;;;;;;;;;;6221273;23;20011;-87
2023/11/06 09:19:05;;;;;;;2.22;2.03;;;;;;;;;;6248830;23;20075;-84
2023/11/06 09:21:31;;;;;;;2.53;2.00;;;;;;;;;;6247703;23;20004;-85
2023/11/06 09:23:57;;;;;;;2.38;2.17;;;;;;;;;;6247770;23;20146;-85
2023/11/06 09:26:22;;;;;;;2.03;1.92;;;;;;;;;;6247552;23;20008;-84
2023/11/06 09:28:52;;;;;;;2.38;2.00;;;;;;;;;;6247514;23;20071;-84
2023/11/06 09:31:20;;;;;;;;;;;;;;;;;;6248660;23;20004;-91
2023/11/06 09:33:49;;;;;;;2.55;2.20;;;;;;;;;;6247782;23;20319;-89
2023/11/06 09:36:15;;;;;;;2.38;2.17;;;;;;;;;;6248495;23;20046;-88
2023/11/06 09:38:41;;;;;;;2.60;2.40;;;;;;;;;;6247596;23;20415;-92
2023/11/06 09:41:07;;;;;;;2.40;2.08;;;;;;;;;;6248305;23;20004;-89
2023/11/06 09:43:32;;;;;;;2.13;1.92;;;;;;;;;;6222847;23;20004;-90
2023/11/06 09:45:58;;;;;;;2.13;1.90;;;;;;;;;;6247964;23;20004;-87
2023/11/06 09:48:31;;;;;;;2.03;1.92;;;;;;;;;;6248503;23;20004;-85
2023/11/06 09:50:56;;;;;;;2.65;2.40;;;;;;;;;;6249450;23;20079;-88
2023/11/06 09:53:23;;;;;;;1.88;1.77;;;;;;;;;;6248820;23;20007;-88
2023/11/06 09:55:51;;;;;;;2.65;2.20;;;;;;;;;;6259356;23;20007;-84
2023/11/06 09:58:16;;;;;;;2.25;2.05;;;;;;;;;;6270129;23;20007;-84
2023/11/06 10:00:48;;;;;;;3.78;2.40;;;;;;;;;;6245288;23;19992;-83
2023/11/06 10:03:14;;;;;;;1.98;1.88;;;;;;;;;;6269776;23;20000;-86
2023/11/06 10:05:40;;;;;;;2.45;1.73;;;;;;;;;;6225380;23;20053;-87
2023/11/06 10:08:06;;;;;;;2.83;2.00;;;;;;;;;;6249537;23;20008;-85
2023/11/06 10:10:34;;;;;;;1.92;1.80;;;;;;;;;;6249531;23;20005;-88
2023/11/06 10:13:03;;;;;;;1.83;1.73;;;;;;;;;;6247260;23;20009;-87
2023/11/06 10:15:36;;;;;;;2.15;1.95;;;;;;;;;;6246928;23;20004;-85
2023/11/06 10:18:18;;;;;;;2.20;2.00;;;;;;;;;;6247091;23;20004;-88
2023/11/06 10:20:45;;;;;;;2.03;1.52;;;;;;;;;;6247489;23;20010;-86
2023/11/06 10:23:11;;;;;;;2.05;1.85;;;;;;;;;;6220383;23;20015;-89
2023/11/06 10:25:37;;;;;;;2.65;2.20;;;;;;;;;;6247596;23;20000;-86
2023/11/06 10:28:19;;;;;;;2.50;2.28;;;;;;;;;;6247603;23;20088;-92
2023/11/06 10:30:50;;;;;;;2.95;2.20;;;;;;;;;;6247441;23;20305;-83
2023/11/06 10:33:16;;;;;;;2.35;1.83;;;;;;;;;;6247571;23;20420;-88
2023/11/06 10:35:42;;;;;;;2.05;1.88;;;;;;;;;;6247627;23;20093;-94
2023/11/06 10:38:08;;;;;;;2.03;1.70;;;;;;;;;;6247251;23;20004;-89
2023/11/06 10:40:34;;;;;;;1.95;1.70;;;;;;;;;;6246948;23;20011;-87
2023/11/06 10:43:04;;;;;;;1.63;1.52;;;;;;;;;;6246960;23;20004;-90
2023/11/06 10:45:33;;;;;;;2.15;1.77;;;;;;;;;;6247609;23;20008;-86
2023/11/06 10:48:10;;;;;;;4.32;1.85;;;;;;;;;;6246847;23;20305;-83
2023/11/06 10:50:37;;;;;;;1.60;1.50;;;;;;;;;;6246713;23;20004;-88
2023/11/06 10:53:05;;;;;;;2.65;2.28;;;;;;;;;;6246744;23;20075;-88
2023/11/06 10:55:33;;;;;;;2.08;1.88;;;;;;;;;;6247726;23;20079;-85
2023/11/06 10:58:00;;;;;;;2.10;1.90;;;;;;;;;;6247393;23;20372;-86
2023/11/06 11:00:26;;;;;;;2.20;1.92;;;;;;;;;;6247407;23;20042;-89
2023/11/06 11:02:51;;;;;;;2.38;1.70;;;;;;;;;;6247871;23;19996;-93
2023/11/06 11:05:18;;;;;;;1.75;1.65;;;;;;;;;;6221179;23;20283;-87
2023/11/06 11:07:48;;;;;;;1.63;1.52;;;;;;;;;;6246973;23;20007;-93
2023/11/06 11:10:18;;;;;;;2.60;1.90;;;;;;;;;;6247116;23;20004;-90
2023/11/06 11:12:46;;;;;;;1.65;1.55;;;;;;;;;;6247147;23;20086;-84
2023/11/06 11:15:12;;;;;;;2.50;2.30;;;;;;;;;;6246977;23;20027;-86
2023/11/06 11:17:38;;;;;;;1.90;1.80;;;;;;;;;;6247491;23;20477;-95
2023/11/06 11:20:07;;;;;;;3.97;2.80;;;;;;;;;;6247286;23;20000;-83
2023/11/06 11:23:06;;;;;;;2.40;2.00;;;;;;;;;;6248031;23;20059;-88
2023/11/06 11:25:58;;;;;;;3.70;2.28;;;;;;;;;;6248283;23;20011;-91
2023/11/06 11:28:25;;;;;;;1.70;1.60;;;;;;;;;;6246538;23;20000;-84
2023/11/06 11:30:51;;;;;;;2.22;1.85;;;;;;;;;;6246848;23;20376;-82
2023/11/06 11:33:55;;;;;;;11.90;7.63;;;;;;;;;;6219663;23;20083;-82
2023/11/06 11:36:30;;;;;;;2.95;2.40;;;;;;;;;;6210513;23;20013;-84
2023/11/06 11:38:56;;;;;;;2.85;2.10;;;;;;;;;;6246402;23;20000;-86
2023/11/06 11:41:22;;;;;;;2.08;1.88;;;;;;;;;;6246604;23;20437;-85
2023/11/06 11:43:49;;;;;;;2.20;2.00;;;;;;;;;;6247343;23;20023;-93
2023/11/06 11:46:33;;;;;;;2.65;1.83;;;;;;;;;;6246484;23;20072;-84
2023/11/06 11:48:59;;;;;;;2.42;2.10;;;;;;;;;;6219677;23;20382;-84
2023/11/06 11:51:47;;;;;;;3.25;2.05;;;;;;;;;;6246510;23;20004;-88
2023/11/06 11:54:32;;;;;;;3.17;2.42;;;;;;;;;;6246309;23;20000;-83
2023/11/06 11:56:59;;;;;;;2.80;1.60;;;;;;;;;;6246405;23;20040;-83
2023/11/06 11:59:26;;;;;;;1.98;1.75;;;;;;;;;;6246233;23;20011;-87
2023/11/06 12:01:52;;;;;;;2.00;1.90;;;;;;;;;;6247274;23;20366;-83
2023/11/06 12:04:27;;;;;;;2.00;1.80;;;;;;;;;;6248439;23;20007;-83
2023/11/06 12:06:58;;;;;;;2.80;1.90;;;;;;;;;;6248503;23;20011;-84
2023/11/06 12:09:24;;;;;;;3.10;1.83;;;;;;;;;;6248387;23;20012;-83
2023/11/06 12:11:50;;;;;;;2.05;1.50;;;;;;;;;;6248001;23;20022;-82
2023/11/06 12:14:16;;;;;;;1.35;1.25;;;;;;;;;;6248305;23;19996;-82
2023/11/06 12:16:53;;;;;;;2.08;1.67;;;;;;;;;;6248196;23;20008;-82
2023/11/06 12:19:18;;;;;;;1.50;1.40;;;;;;;;;;6248361;23;20000;-82
2023/11/06 12:21:58;;;;;;;2.67;1.00;;;;;;;;;;6248121;23;20030;-82
2023/11/06 12:24:24;;;;;;;2.97;1.60;;;;;;;;;;6221238;23;20366;-82
2023/11/06 12:26:51;;;;;;;3.70;3.33;;;;;;;;;;6248321;23;20077;-83
2023/11/06 12:29:29;;;;;;;2.20;2.00;;;;;;;;;;6247978;23;20000;-83
2023/11/06 12:31:55;;;;;;;1.55;1.38;;;;;;;;;;6248026;23;20043;-85
2023/11/06 12:34:22;;;;;;;2.65;1.48;;;;;;;;;;6248388;23;20008;-83
2023/11/06 12:36:48;;;;;;;1.50;1.40;;;;;;;;;;6248325;23;20003;-84
2023/11/06 12:39:28;;;;;;;2.10;1.48;;;;;;;;;;6247850;23;20045;-87
2023/11/06 12:41:57;;;;;;;1.40;1.30;;;;;;;;;;6248238;23;20004;-88
2023/11/06 12:44:37;;;;;;;3.47;1.75;;;;;;;;;;6248527;23;20439;-83
2023/11/06 17:39:26;;;;;;;11.40;9.43;;;;;;;;;;6233267;22;20012;-83
2023/11/06 17:41:51;;;;;;;7.78;5.30;;;;;;;;;;6278286;22;20284;-83
2023/11/06 17:44:20;;;;;;;11.45;6.95;;;;;;;;;;6278469;22;20326;-83
2023/11/06 17:46:47;;;;;;;6.63;4.38;;;;;;;;;;6278154;22;19999;-83
2023/11/06 17:49:13;;;;;;;5.05;3.78;;;;;;;;;;6278371;22;20004;-84
2023/11/06 17:51:38;;;;;;;6.30;3.33;;;;;;;;;;6278485;22;20063;-83
2023/11/06 17:54:04;;;;;;;7.38;3.38;;;;;;;;;;6278484;22;20039;-83
2023/11/06 17:56:30;;;;;;;4.57;3.15;;;;;;;;;;6278244;22;20007;-82
2023/11/06 17:58:56;;;;;;;7.78;5.03;;;;;;;;;;6277958;22;20004;-83
2023/11/06 18:01:22;;;;;;;11.32;4.60;;;;;;;;;;6280737;22;20077;-87
2023/11/06 18:03:48;;;;;;;9.52;5.15;;;;;;;;;;6225912;22;20000;-82
2023/11/06 18:06:13;;;;;;;10.55;5.82;;;;;;;;;;6278015;22;20011;-84
2023/11/06 18:08:39;;;;;;;10.52;6.28;;;;;;;;;;6251878;22;20007;-87
2023/11/06 18:11:05;;;;;;;7.28;6.35;;;;;;;;;;6251515;22;20330;-87
2023/11/06 18:13:31;;;;;;;33.17;24.13;;;;;;;;;;6252144;22;20011;-88
2023/11/06 18:16:00;;;;;;;34.30;25.20;;;;;;;;;;6251664;22;20016;-87
2023/11/06 18:18:27;;;;;;;16.90;11.65;;;;;;;;;;6253212;22;20007;-86
2023/11/06 18:20:52;;;;;;;13.07;9.45;;;;;;;;;;6278516;22;20010;-87
2023/11/06 18:23:18;;;;;;;13.00;9.65;;;;;;;;;;6278473;22;20003;-88
2023/11/06 18:25:45;;;;;;;10.73;7.38;;;;;;;;;;6278608;22;20015;-84
2023/11/06 18:28:11;;;;;;;9.77;6.18;;;;;;;;;;6278888;22;20023;-85
2023/11/06 18:30:36;;;;;;;10.40;7.03;;;;;;;;;;6278167;22;20010;-85
2023/11/06 18:33:03;;;;;;;7.80;6.95;;;;;;;;;;6277869;22;20011;-87
2023/11/06 18:35:29;;;;;;;8.85;6.72;;;;;;;;;;6278208;22;20026;-85
2023/11/06 18:37:54;;;;;;;11.70;7.07;;;;;;;;;;6278360;22;20430;-85
2023/11/06 18:40:21;;;;;;;11.88;7.78;;;;;;;;;;6278489;22;20418;-85
2023/11/06 18:42:46;;;;;;;9.27;7.00;;;;;;;;;;6278427;22;20008;-85
2023/11/06 18:45:13;;;;;;;11.07;7.00;;;;;;;;;;6278642;22;20007;-86
2023/11/06 18:47:38;;;;;;;11.18;7.05;;;;;;;;;;6251424;22;20065;-86
2023/11/06 18:50:05;;;;;;;7.25;6.13;;;;;;;;;;6278688;22;20019;-88
2023/11/06 18:52:31;;;;;;;6.03;4.57;;;;;;;;;;6278378;22;20010;-85
2023/11/06 18:54:56;;;;;;;5.07;3.60;;;;;;;;;;6278142;22;19999;-85
2023/11/06 18:57:22;;;;;;;6.30;5.28;;;;;;;;;;6278399;22;20007;-87
2023/11/06 18:59:47;;;;;;;11.93;7.03;;;;;;;;;;6278202;22;20004;-87
2023/11/06 19:02:13;;;;;;;7.22;6.15;;;;;;;;;;6278048;22;20415;-87
2023/11/06 19:04:40;;;;;;;8.65;4.95;;;;;;;;;;6278196;22;20426;-88
2023/11/06 19:07:07;;;;;;;7.03;5.28;;;;;;;;;;6278077;22;19996;-87
2023/11/06 19:09:33;;;;;;;6.10;5.40;;;;;;;;;;6278279;22;20000;-89
2023/11/06 19:12:00;;;;;;;7.10;5.10;;;;;;;;;;6250696;22;20057;-90
2023/11/06 19:14:26;;;;;;;6.47;5.40;;;;;;;;;;6278199;22;20011;-88
2023/11/06 19:16:51;;;;;;;6.40;4.75;;;;;;;;;;6277744;22;20011;-88
2023/11/06 19:19:18;;;;;;;7.07;5.32;;;;;;;;;;6250562;22;20418;-85
2023/11/06 19:21:43;;;;;;;7.95;5.05;;;;;;;;;;6250887;22;20018;-86
2023/11/06 19:24:11;;;;;;;6.80;4.65;;;;;;;;;;6277783;22;20078;-88
2023/11/06 19:26:37;;;;;;;6.20;4.15;;;;;;;;;;6250459;22;20008;-87
2023/11/06 19:29:09;;;;;;;4.88;3.78;;;;;;;;;;6277719;22;20056;-86
